sensor_id;sensor_type;location;lat;lon;timestamp;pressure;altitude;pressure_sealevel;temperature;humidity
8717;BME280;4395;48.554;8.820;2022-08-02T00:01:54;96187.03;;;18.77;100.00
8717;BME280;4395;48.554;8.820;2022-08-02T00:03:57;96182.72;;;18.76;100.00
8717;BME280;4395;48.554;8.820;2022-08-02T00:05:59;96184.41;;;18.72;100.00
8717;BME280;4395;48.554;8.820;2022-08-02T00:08:03;96178.84;;;18.63;100.00
8717;BME280;4395;48.554;8.820;2022-08-02T00:10:08;96171.81;;;18.57;100.00
8717;BME280;4395;48.554;8.820;2022-08-02T00:12:11;96182.94;;;18.42;100.00
8717;BME280;4395;48.554;8.820;2022-08-02T00:14:14;96176.03;;;18.30;100.00
8717;BME280;4395;48.554;8.820;2022-08-02T00:16:17;96159.91;;;18.15;100.00
8717;BME280;4395;48.554;8.820;2022-08-02T00:18:37;96175.22;;;18.30;100.00
8717;BME280;4395;48.554;8.820;2022-08-02T00:20:41;96182.22;;;17.93;100.00
8717;BME280;4395;48.554;8.820;2022-08-02T00:22:44;96183.44;;;17.58;100.00
8717;BME280;4395;48.554;8.820;2022-08-02T00:24:47;96188.59;;;17.36;100.00
8717;BME280;4395;48.554;8.820;2022-08-02T00:26:51;96186.16;;;17.58;100.00
8717;BME280;4395;48.554;8.820;2022-08-02T00:28:54;96182.72;;;17.77;100.00
8717;BME280;4395;48.554;8.820;2022-08-02T00:30:57;96153.22;;;17.65;100.00
8717;BME280;4395;48.554;8.820;2022-08-02T00:33:00;96180.28;;;17.51;100.00
8717;BME280;4395;48.554;8.820;2022-08-02T00:35:06;96173.09;;;17.60;100.00
8717;BME280;4395;48.554;8.820;2022-08-02T00:37:09;96178.53;;;17.60;100.00
8717;BME280;4395;48.554;8.820;2022-08-02T00:39:12;96181.78;;;17.62;100.00
8717;BME280;4395;48.554;8.820;2022-08-02T00:41:44;96176.81;;;17.70;100.00
8717;BME280;4395;48.554;8.820;2022-08-02T00:43:49;96177.03;;;17.49;100.00
8717;BME280;4395;48.554;8.820;2022-08-02T00:45:52;96170.78;;;17.25;100.00
8717;BME280;4395;48.554;8.820;2022-08-02T00:48:06;96132.19;;;17.28;100.00
8717;BME280;4395;48.554;8.820;2022-08-02T00:50:09;96169.88;;;17.58;100.00
8717;BME280;4395;48.554;8.820;2022-08-02T00:52:12;96166.53;;;17.66;100.00
8717;BME280;4395;48.554;8.820;2022-08-02T00:54:15;96177.28;;;17.77;100.00
8717;BME280;4395;48.554;8.820;2022-08-02T00:56:18;96173.47;;;17.78;100.00
8717;BME280;4395;48.554;8.820;2022-08-02T00:58:21;96165.16;;;17.69;100.00
8717;BME280;4395;48.554;8.820;2022-08-02T01:00:25;96170.63;;;17.64;100.00
8717;BME280;4395;48.554;8.820;2022-08-02T01:02:30;96195.19;;;17.54;100.00
8717;BME280;4395;48.554;8.820;2022-08-02T01:04:33;96176.84;;;17.64;100.00
8717;BME280;4395;48.554;8.820;2022-08-02T01:06:36;96174.50;;;17.58;100.00
8717;BME280;4395;48.554;8.820;2022-08-02T01:08:39;96169.97;;;17.48;100.00
8717;BME280;4395;48.554;8.820;2022-08-02T01:10:44;96175.41;;;17.24;100.00
8717;BME280;4395;48.554;8.820;2022-08-02T01:12:48;96177.38;;;17.19;100.00
8717;BME280;4395;48.554;8.820;2022-08-02T01:14:54;96178.63;;;17.02;100.00
8717;BME280;4395;48.554;8.820;2022-08-02T01:17:02;96181.28;;;17.08;100.00
8717;BME280;4395;48.554;8.820;2022-08-02T01:19:23;96175.94;;;16.97;100.00
8717;BME280;4395;48.554;8.820;2022-08-02T01:21:40;96140.66;;;16.68;100.00
8717;BME280;4395;48.554;8.820;2022-08-02T01:24:10;96177.53;;;17.03;100.00
8717;BME280;4395;48.554;8.820;2022-08-02T01:26:31;96180.25;;;17.27;100.00
8717;BME280;4395;48.554;8.820;2022-08-02T01:28:42;96181.19;;;17.42;100.00
8717;BME280;4395;48.554;8.820;2022-08-02T01:30:54;96174.19;;;17.59;100.00
8717;BME280;4395;48.554;8.820;2022-08-02T01:33:00;96175.25;;;17.63;100.00
8717;BME280;4395;48.554;8.820;2022-08-02T01:35:09;96177.97;;;17.63;100.00
8717;BME280;4395;48.554;8.820;2022-08-02T01:37:17;96177.56;;;17.51;100.00
8717;BME280;4395;48.554;8.820;2022-08-02T01:39:23;96173.59;;;17.67;100.00
8717;BME280;4395;48.554;8.820;2022-08-02T01:41:34;96167.66;;;17.60;100.00
8717;BME280;4395;48.554;8.820;2022-08-02T01:43:39;96050.44;;;17.06;100.00
8717;BME280;4395;48.554;8.820;2022-08-02T01:45:44;96171.69;;;17.68;100.00
8717;BME280;4395;48.554;8.820;2022-08-02T01:47:49;96178.78;;;17.40;100.00
8717;BME280;4395;48.554;8.820;2022-08-02T01:49:56;96182.13;;;17.32;100.00
8717;BME280;4395;48.554;8.820;2022-08-02T01:52:00;96145.13;;;17.36;100.00
8717;BME280;4395;48.554;8.820;2022-08-02T01:54:24;96180.22;;;17.80;100.00
8717;BME280;4395;48.554;8.820;2022-08-02T01:56:28;96182.00;;;17.90;100.00
8717;BME280;4395;48.554;8.820;2022-08-02T01:58:34;96171.56;;;17.97;100.00
8717;BME280;4395;48.554;8.820;2022-08-02T02:00:40;96143.44;;;17.88;100.00
8717;BME280;4395;48.554;8.820;2022-08-02T02:02:46;96161.91;;;18.28;100.00
8717;BME280;4395;48.554;8.820;2022-08-02T02:04:51;96166.88;;;18.59;100.00
8717;BME280;4395;48.554;8.820;2022-08-02T02:06:55;96072.16;;;18.28;100.00
8717;BME280;4395;48.554;8.820;2022-08-02T02:08:59;96164.28;;;18.86;100.00
8717;BME280;4395;48.554;8.820;2022-08-02T02:11:03;96172.63;;;18.76;100.00
8717;BME280;4395;48.554;8.820;2022-08-02T02:13:26;96147.16;;;18.86;100.00
8717;BME280;4395;48.554;8.820;2022-08-02T02:15:40;96177.47;;;18.79;100.00
8717;BME280;4395;48.554;8.820;2022-08-02T02:17:46;96177.44;;;18.66;100.00
8717;BME280;4395;48.554;8.820;2022-08-02T02:20:12;96161.09;;;18.47;100.00
8717;BME280;4395;48.554;8.820;2022-08-02T02:22:16;96171.91;;;18.33;100.00
8717;BME280;4395;48.554;8.820;2022-08-02T02:24:19;96169.38;;;17.99;100.00
8717;BME280;4395;48.554;8.820;2022-08-02T02:26:23;96165.19;;;17.88;100.00
8717;BME280;4395;48.554;8.820;2022-08-02T02:28:34;96159.56;;;18.22;100.00
8717;BME280;4395;48.554;8.820;2022-08-02T02:30:43;96152.97;;;18.60;100.00
8717;BME280;4395;48.554;8.820;2022-08-02T02:32:50;96126.41;;;18.39;100.00
8717;BME280;4395;48.554;8.820;2022-08-02T02:34:55;96156.09;;;18.54;100.00
8717;BME280;4395;48.554;8.820;2022-08-02T02:37:03;96148.72;;;18.17;100.00
8717;BME280;4395;48.554;8.820;2022-08-02T02:39:08;96151.59;;;17.64;100.00
8717;BME280;4395;48.554;8.820;2022-08-02T02:41:15;96128.25;;;17.39;100.00
8717;BME280;4395;48.554;8.820;2022-08-02T02:43:20;95934.66;;;16.24;100.00
8717;BME280;4395;48.554;8.820;2022-08-02T02:45:24;96155.59;;;17.48;100.00
8717;BME280;4395;48.554;8.820;2022-08-02T02:47:31;96145.06;;;17.41;100.00
8717;BME280;4395;48.554;8.820;2022-08-02T02:49:42;96132.88;;;17.15;100.00
8717;BME280;4395;48.554;8.820;2022-08-02T02:51:46;96136.28;;;17.49;100.00
8717;BME280;4395;48.554;8.820;2022-08-02T02:53:50;96042.28;;;17.06;100.00
8717;BME280;4395;48.554;8.820;2022-08-02T02:56:14;96136.44;;;17.82;100.00
8717;BME280;4395;48.554;8.820;2022-08-02T02:58:17;96135.69;;;17.76;100.00
8717;BME280;4395;48.554;8.820;2022-08-02T03:00:29;96133.09;;;17.42;100.00
8717;BME280;4395;48.554;8.820;2022-08-02T03:02:51;96135.88;;;17.61;100.00
8717;BME280;4395;48.554;8.820;2022-08-02T03:04:55;96132.56;;;17.88;100.00
8717;BME280;4395;48.554;8.820;2022-08-02T03:07:00;96132.41;;;17.31;100.00
8717;BME280;4395;48.554;8.820;2022-08-02T03:09:03;96138.53;;;17.18;100.00
8717;BME280;4395;48.554;8.820;2022-08-02T03:11:07;96144.31;;;17.12;100.00
8717;BME280;4395;48.554;8.820;2022-08-02T03:13:11;96139.69;;;17.36;100.00
8717;BME280;4395;48.554;8.820;2022-08-02T03:15:16;96119.75;;;17.22;100.00
8717;BME280;4395;48.554;8.820;2022-08-02T03:17:19;96143.75;;;17.39;100.00
8717;BME280;4395;48.554;8.820;2022-08-02T03:19:23;96143.47;;;17.40;100.00
8717;BME280;4395;48.554;8.820;2022-08-02T03:21:33;96141.53;;;17.64;100.00
8717;BME280;4395;48.554;8.820;2022-08-02T03:23:36;96119.22;;;17.67;100.00
8717;BME280;4395;48.554;8.820;2022-08-02T03:25:40;96142.16;;;17.80;100.00
8717;BME280;4395;48.554;8.820;2022-08-02T03:27:43;96142.00;;;17.72;100.00
8717;BME280;4395;48.554;8.820;2022-08-02T03:29:46;96150.25;;;17.61;100.00
8717;BME280;4395;48.554;8.820;2022-08-02T03:31:49;96144.91;;;17.56;100.00
8717;BME280;4395;48.554;8.820;2022-08-02T03:33:53;96029.06;;;16.75;100.00
8717;BME280;4395;48.554;8.820;2022-08-02T03:35:58;96052.06;;;16.54;100.00
8717;BME280;4395;48.554;8.820;2022-08-02T03:38:04;96156.50;;;17.14;100.00
8717;BME280;4395;48.554;8.820;2022-08-02T03:40:08;96149.81;;;17.78;100.00
8717;BME280;4395;48.554;8.820;2022-08-02T03:42:12;96150.13;;;18.14;100.00
8717;BME280;4395;48.554;8.820;2022-08-02T03:44:16;96151.75;;;18.15;100.00
8717;BME280;4395;48.554;8.820;2022-08-02T03:46:21;96153.03;;;17.80;100.00
8717;BME280;4395;48.554;8.820;2022-08-02T03:48:26;96163.09;;;17.56;100.00
8717;BME280;4395;48.554;8.820;2022-08-02T03:50:35;96170.78;;;17.49;100.00
8717;BME280;4395;48.554;8.820;2022-08-02T03:52:41;96160.28;;;17.42;100.00
8717;BME280;4395;48.554;8.820;2022-08-02T03:54:44;96166.41;;;17.29;100.00
8717;BME280;4395;48.554;8.820;2022-08-02T03:56:47;96169.28;;;17.38;100.00
8717;BME280;4395;48.554;8.820;2022-08-02T03:59:04;96166.34;;;17.34;100.00
8717;BME280;4395;48.554;8.820;2022-08-02T04:01:07;96165.94;;;16.59;100.00
8717;BME280;4395;48.554;8.820;2022-08-02T04:03:10;96167.00;;;16.68;100.00
8717;BME280;4395;48.554;8.820;2022-08-02T04:05:20;96162.44;;;16.92;100.00
8717;BME280;4395;48.554;8.820;2022-08-02T04:07:23;96166.44;;;17.00;100.00
8717;BME280;4395;48.554;8.820;2022-08-02T04:09:47;96166.78;;;17.17;100.00
8717;BME280;4395;48.554;8.820;2022-08-02T04:11:50;96168.94;;;17.20;100.00
8717;BME280;4395;48.554;8.820;2022-08-02T04:13:51;96178.69;;;17.21;100.00
8717;BME280;4395;48.554;8.820;2022-08-02T04:16:03;96179.78;;;17.20;100.00
8717;BME280;4395;48.554;8.820;2022-08-02T04:18:05;96167.66;;;17.13;100.00
8717;BME280;4395;48.554;8.820;2022-08-02T04:20:13;96179.09;;;17.10;100.00
8717;BME280;4395;48.554;8.820;2022-08-02T04:22:19;96178.66;;;16.97;100.00
8717;BME280;4395;48.554;8.820;2022-08-02T04:24:26;96180.81;;;17.00;100.00
8717;BME280;4395;48.554;8.820;2022-08-02T04:26:35;96178.00;;;17.11;100.00
8717;BME280;4395;48.554;8.820;2022-08-02T04:28:43;96177.44;;;17.14;100.00
8717;BME280;4395;48.554;8.820;2022-08-02T04:30:46;96180.47;;;17.07;100.00
8717;BME280;4395;48.554;8.820;2022-08-02T04:32:51;96179.19;;;16.99;100.00
8717;BME280;4395;48.554;8.820;2022-08-02T04:34:54;96183.63;;;17.19;100.00
8717;BME280;4395;48.554;8.820;2022-08-02T04:37:17;96193.09;;;17.22;100.00
8717;BME280;4395;48.554;8.820;2022-08-02T04:39:20;96179.56;;;17.17;100.00
8717;BME280;4395;48.554;8.820;2022-08-02T04:41:37;96185.44;;;17.00;100.00
8717;BME280;4395;48.554;8.820;2022-08-02T04:43:44;96195.56;;;16.89;100.00
8717;BME280;4395;48.554;8.820;2022-08-02T04:45:48;96192.25;;;16.97;100.00
8717;BME280;4395;48.554;8.820;2022-08-02T04:47:53;96197.56;;;17.08;100.00
8717;BME280;4395;48.554;8.820;2022-08-02T04:50:06;96192.75;;;16.99;100.00
8717;BME280;4395;48.554;8.820;2022-08-02T04:52:09;96193.50;;;16.76;100.00
8717;BME280;4395;48.554;8.820;2022-08-02T04:54:12;96184.00;;;17.08;100.00
8717;BME280;4395;48.554;8.820;2022-08-02T04:56:15;96129.00;;;16.68;100.00
8717;BME280;4395;48.554;8.820;2022-08-02T04:58:19;96192.34;;;17.16;100.00
8717;BME280;4395;48.554;8.820;2022-08-02T05:00:41;95999.09;;;15.69;100.00
8717;BME280;4395;48.554;8.820;2022-08-02T05:02:44;96197.28;;;16.80;100.00
8717;BME280;4395;48.554;8.820;2022-08-02T05:04:47;96192.84;;;16.89;100.00
8717;BME280;4395;48.554;8.820;2022-08-02T05:06:50;96098.81;;;16.40;100.00
8717;BME280;4395;48.554;8.820;2022-08-02T05:08:53;96189.66;;;16.82;100.00
8717;BME280;4395;48.554;8.820;2022-08-02T05:10:55;96194.66;;;16.99;100.00
8717;BME280;4395;48.554;8.820;2022-08-02T05:12:58;96194.66;;;16.99;100.00
8717;BME280;4395;48.554;8.820;2022-08-02T05:15:03;96193.72;;;16.85;100.00
8717;BME280;4395;48.554;8.820;2022-08-02T05:17:06;96194.28;;;17.11;100.00
8717;BME280;4395;48.554;8.820;2022-08-02T05:19:09;96187.19;;;17.15;100.00
8717;BME280;4395;48.554;8.820;2022-08-02T05:21:12;96256.16;;;17.14;100.00
8717;BME280;4395;48.554;8.820;2022-08-02T05:23:16;96194.09;;;17.31;100.00
8717;BME280;4395;48.554;8.820;2022-08-02T05:25:18;96140.16;;;17.19;100.00
8717;BME280;4395;48.554;8.820;2022-08-02T05:27:21;96187.56;;;17.56;100.00
8717;BME280;4395;48.554;8.820;2022-08-02T05:29:24;96196.88;;;17.50;100.00
8717;BME280;4395;48.554;8.820;2022-08-02T05:31:28;96173.00;;;17.47;100.00
8717;BME280;4395;48.554;8.820;2022-08-02T05:33:31;96182.59;;;17.63;100.00
8717;BME280;4395;48.554;8.820;2022-08-02T05:35:35;96185.50;;;17.72;100.00
8717;BME280;4395;48.554;8.820;2022-08-02T05:37:38;96191.22;;;17.70;100.00
8717;BME280;4395;48.554;8.820;2022-08-02T05:39:43;96177.22;;;17.82;100.00
8717;BME280;4395;48.554;8.820;2022-08-02T05:41:56;96191.66;;;18.01;100.00
8717;BME280;4395;48.554;8.820;2022-08-02T05:44:00;96190.41;;;18.12;100.00
8717;BME280;4395;48.554;8.820;2022-08-02T05:46:03;96004.53;;;16.85;100.00
8717;BME280;4395;48.554;8.820;2022-08-02T05:48:08;96191.25;;;18.31;100.00
8717;BME280;4395;48.554;8.820;2022-08-02T05:50:11;96195.72;;;18.41;100.00
8717;BME280;4395;48.554;8.820;2022-08-02T05:52:16;96212.78;;;18.47;100.00
8717;BME280;4395;48.554;8.820;2022-08-02T05:54:22;96193.44;;;18.48;100.00
8717;BME280;4395;48.554;8.820;2022-08-02T05:56:33;96192.56;;;18.53;100.00
8717;BME280;4395;48.554;8.820;2022-08-02T05:58:49;96045.31;;;16.80;100.00
8717;BME280;4395;48.554;8.820;2022-08-02T06:00:55;96201.41;;;18.63;100.00
8717;BME280;4395;48.554;8.820;2022-08-02T06:03:03;96057.69;;;17.77;100.00
8717;BME280;4395;48.554;8.820;2022-08-02T06:05:10;96197.22;;;18.71;100.00
8717;BME280;4395;48.554;8.820;2022-08-02T06:07:13;96202.28;;;18.78;100.00
8717;BME280;4395;48.554;8.820;2022-08-02T06:09:18;96201.50;;;18.91;100.00
8717;BME280;4395;48.554;8.820;2022-08-02T06:11:34;96203.44;;;18.90;100.00
8717;BME280;4395;48.554;8.820;2022-08-02T06:13:38;96199.00;;;18.94;100.00
8717;BME280;4395;48.554;8.820;2022-08-02T06:15:43;96193.97;;;19.02;100.00
8717;BME280;4395;48.554;8.820;2022-08-02T06:17:54;96192.69;;;19.13;100.00
8717;BME280;4395;48.554;8.820;2022-08-02T06:19:59;96192.91;;;19.16;100.00
8717;BME280;4395;48.554;8.820;2022-08-02T06:22:04;96185.25;;;19.18;100.00
8717;BME280;4395;48.554;8.820;2022-08-02T06:24:36;96192.31;;;19.33;100.00
8717;BME280;4395;48.554;8.820;2022-08-02T06:26:40;96130.94;;;18.94;100.00
8717;BME280;4395;48.554;8.820;2022-08-02T06:28:44;96198.78;;;19.37;100.00
8717;BME280;4395;48.554;8.820;2022-08-02T06:30:49;96199.81;;;19.41;100.00
8717;BME280;4395;48.554;8.820;2022-08-02T06:32:52;96186.09;;;19.46;100.00
8717;BME280;4395;48.554;8.820;2022-08-02T06:34:55;96207.22;;;19.54;100.00
8717;BME280;4395;48.554;8.820;2022-08-02T06:37:04;96199.25;;;19.58;100.00
8717;BME280;4395;48.554;8.820;2022-08-02T06:39:15;96201.25;;;19.66;100.00
8717;BME280;4395;48.554;8.820;2022-08-02T06:41:23;96202.78;;;19.72;100.00
8717;BME280;4395;48.554;8.820;2022-08-02T06:43:30;96200.56;;;19.74;100.00
8717;BME280;4395;48.554;8.820;2022-08-02T06:45:39;96196.00;;;19.83;100.00
8717;BME280;4395;48.554;8.820;2022-08-02T06:47:42;96189.53;;;19.93;100.00
8717;BME280;4395;48.554;8.820;2022-08-02T06:49:45;96197.50;;;20.03;100.00
8717;BME280;4395;48.554;8.820;2022-08-02T06:51:55;96187.19;;;20.14;100.00
8717;BME280;4395;48.554;8.820;2022-08-02T06:53:57;96189.69;;;20.24;100.00
8717;BME280;4395;48.554;8.820;2022-08-02T06:56:02;96071.25;;;19.53;100.00
8717;BME280;4395;48.554;8.820;2022-08-02T06:58:09;96139.84;;;19.96;100.00
8717;BME280;4395;48.554;8.820;2022-08-02T07:00:13;96198.66;;;20.38;100.00
8717;BME280;4395;48.554;8.820;2022-08-02T07:02:18;96095.53;;;19.77;100.00
8717;BME280;4395;48.554;8.820;2022-08-02T07:04:21;96201.59;;;20.42;100.00
8717;BME280;4395;48.554;8.820;2022-08-02T07:06:24;96198.75;;;20.47;100.00
8717;BME280;4395;48.554;8.820;2022-08-02T07:08:27;96199.31;;;20.58;100.00
8717;BME280;4395;48.554;8.820;2022-08-02T07:10:32;96140.75;;;20.28;100.00
8717;BME280;4395;48.554;8.820;2022-08-02T07:12:37;96206.97;;;20.69;100.00
8717;BME280;4395;48.554;8.820;2022-08-02T07:14:39;96200.28;;;20.75;100.00
8717;BME280;4395;48.554;8.820;2022-08-02T07:16:43;96210.84;;;20.91;100.00
8717;BME280;4395;48.554;8.820;2022-08-02T07:18:46;96203.53;;;21.00;100.00
8717;BME280;4395;48.554;8.820;2022-08-02T07:20:49;96178.81;;;20.82;100.00
8717;BME280;4395;48.554;8.820;2022-08-02T07:22:52;96207.63;;;21.11;100.00
8717;BME280;4395;48.554;8.820;2022-08-02T07:24:58;96120.53;;;20.42;100.00
8717;BME280;4395;48.554;8.820;2022-08-02T07:27:01;96222.03;;;21.25;100.00
8717;BME280;4395;48.554;8.820;2022-08-02T07:29:14;96216.81;;;21.37;100.00
8717;BME280;4395;48.554;8.820;2022-08-02T07:31:17;96213.31;;;21.45;100.00
8717;BME280;4395;48.554;8.820;2022-08-02T07:33:20;96214.78;;;21.52;100.00
8717;BME280;4395;48.554;8.820;2022-08-02T07:35:39;96210.78;;;21.58;100.00
8717;BME280;4395;48.554;8.820;2022-08-02T07:37:45;96220.75;;;21.54;100.00
8717;BME280;4395;48.554;8.820;2022-08-02T07:40:04;96094.72;;;20.71;100.00
8717;BME280;4395;48.554;8.820;2022-08-02T07:42:13;96207.50;;;21.38;100.00
8717;BME280;4395;48.554;8.820;2022-08-02T07:44:17;96212.47;;;21.36;100.00
8717;BME280;4395;48.554;8.820;2022-08-02T07:46:20;96213.44;;;21.40;100.00
8717;BME280;4395;48.554;8.820;2022-08-02T07:48:23;96003.59;;;20.13;100.00
8717;BME280;4395;48.554;8.820;2022-08-02T07:50:26;96214.81;;;21.60;100.00
8717;BME280;4395;48.554;8.820;2022-08-02T07:52:30;96219.72;;;21.72;100.00
8717;BME280;4395;48.554;8.820;2022-08-02T07:54:33;96219.88;;;21.75;100.00
8717;BME280;4395;48.554;8.820;2022-08-02T07:56:36;96217.00;;;21.80;100.00
8717;BME280;4395;48.554;8.820;2022-08-02T07:58:40;96221.97;;;21.78;100.00
8717;BME280;4395;48.554;8.820;2022-08-02T08:00:44;96220.41;;;21.86;100.00
8717;BME280;4395;48.554;8.820;2022-08-02T08:02:47;96224.94;;;21.91;100.00
8717;BME280;4395;48.554;8.820;2022-08-02T08:04:51;95874.00;;;19.71;100.00
8717;BME280;4395;48.554;8.820;2022-08-02T08:06:54;96226.44;;;22.05;100.00
8717;BME280;4395;48.554;8.820;2022-08-02T08:08:57;96230.03;;;22.14;100.00
8717;BME280;4395;48.554;8.820;2022-08-02T08:11:00;96229.22;;;22.23;100.00
8717;BME280;4395;48.554;8.820;2022-08-02T08:13:03;96225.22;;;22.37;99.66
8717;BME280;4395;48.554;8.820;2022-08-02T08:15:07;96232.16;;;22.43;98.14
8717;BME280;4395;48.554;8.820;2022-08-02T08:17:11;96227.19;;;22.63;96.33
8717;BME280;4395;48.554;8.820;2022-08-02T08:19:14;96229.78;;;22.76;95.40
8717;BME280;4395;48.554;8.820;2022-08-02T08:21:17;96215.94;;;22.82;92.79
8717;BME280;4395;48.554;8.820;2022-08-02T08:23:20;96223.53;;;22.85;92.71
8717;BME280;4395;48.554;8.820;2022-08-02T08:25:23;96222.69;;;23.10;94.75
8717;BME280;4395;48.554;8.820;2022-08-02T08:27:27;96217.53;;;23.17;92.48
8717;BME280;4395;48.554;8.820;2022-08-02T08:29:30;96219.28;;;23.30;92.84
8717;BME280;4395;48.554;8.820;2022-08-02T08:31:34;96222.00;;;23.48;91.89
8717;BME280;4395;48.554;8.820;2022-08-02T08:33:40;96223.59;;;23.66;91.72
8717;BME280;4395;48.554;8.820;2022-08-02T08:35:43;96229.66;;;23.80;90.82
8717;BME280;4395;48.554;8.820;2022-08-02T08:37:46;96218.81;;;23.92;88.92
8717;BME280;4395;48.554;8.820;2022-08-02T08:39:49;96221.84;;;23.99;88.30
8717;BME280;4395;48.554;8.820;2022-08-02T08:41:59;96220.22;;;23.98;87.59
8717;BME280;4395;48.554;8.820;2022-08-02T08:44:03;96219.84;;;24.09;85.24
8717;BME280;4395;48.554;8.820;2022-08-02T08:46:07;96215.34;;;24.04;84.81
8717;BME280;4395;48.554;8.820;2022-08-02T08:48:13;96215.03;;;24.05;84.79
8717;BME280;4395;48.554;8.820;2022-08-02T08:50:34;96213.03;;;24.15;87.00
8717;BME280;4395;48.554;8.820;2022-08-02T08:52:46;96167.59;;;23.96;85.45
8717;BME280;4395;48.554;8.820;2022-08-02T08:54:50;96215.41;;;24.54;84.18
8717;BME280;4395;48.554;8.820;2022-08-02T08:56:54;96207.22;;;24.66;81.11
8717;BME280;4395;48.554;8.820;2022-08-02T08:58:57;96207.75;;;24.81;80.58
8717;BME280;4395;48.554;8.820;2022-08-02T09:01:00;96061.38;;;23.97;79.20
8717;BME280;4395;48.554;8.820;2022-08-02T09:03:04;96199.19;;;25.03;78.35
8717;BME280;4395;48.554;8.820;2022-08-02T09:05:09;96198.75;;;25.13;79.37
8717;BME280;4395;48.554;8.820;2022-08-02T09:07:13;96209.81;;;25.25;79.77
8717;BME280;4395;48.554;8.820;2022-08-02T09:09:16;96157.53;;;25.13;78.60
8717;BME280;4395;48.554;8.820;2022-08-02T09:11:23;96205.06;;;25.59;78.36
8717;BME280;4395;48.554;8.820;2022-08-02T09:13:27;96201.19;;;25.60;76.51
8717;BME280;4395;48.554;8.820;2022-08-02T09:15:52;95803.63;;;23.17;73.52
8717;BME280;4395;48.554;8.820;2022-08-02T09:17:56;96210.78;;;25.54;74.54
8717;BME280;4395;48.554;8.820;2022-08-02T09:20:06;96199.78;;;25.54;73.73
8717;BME280;4395;48.554;8.820;2022-08-02T09:22:11;96165.63;;;25.55;72.76
8717;BME280;4395;48.554;8.820;2022-08-02T09:24:19;96195.75;;;25.96;70.01
8717;BME280;4395;48.554;8.820;2022-08-02T09:26:22;96041.50;;;24.87;69.24
8717;BME280;4395;48.554;8.820;2022-08-02T09:28:26;96194.84;;;26.17;69.23
8717;BME280;4395;48.554;8.820;2022-08-02T09:30:30;96014.78;;;25.20;68.39
8717;BME280;4395;48.554;8.820;2022-08-02T09:32:43;96187.47;;;26.57;64.65
8717;BME280;4395;48.554;8.820;2022-08-02T09:34:47;96189.88;;;26.59;64.19
8717;BME280;4395;48.554;8.820;2022-08-02T09:36:50;96183.53;;;26.71;61.57
8717;BME280;4395;48.554;8.820;2022-08-02T09:38:56;96186.34;;;26.86;61.85
8717;BME280;4395;48.554;8.820;2022-08-02T09:41:02;96187.59;;;27.01;61.91
8717;BME280;4395;48.554;8.820;2022-08-02T09:43:06;96137.63;;;26.63;62.44
8717;BME280;4395;48.554;8.820;2022-08-02T09:45:09;96195.66;;;27.22;60.26
8717;BME280;4395;48.554;8.820;2022-08-02T09:47:15;96197.56;;;27.34;60.70
8717;BME280;4395;48.554;8.820;2022-08-02T09:49:18;96031.91;;;26.15;58.59
8717;BME280;4395;48.554;8.820;2022-08-02T09:51:23;96186.53;;;27.49;58.13
8717;BME280;4395;48.554;8.820;2022-08-02T09:53:26;96191.53;;;27.60;57.85
8717;BME280;4395;48.554;8.820;2022-08-02T09:55:29;96193.72;;;27.82;57.60
8717;BME280;4395;48.554;8.820;2022-08-02T09:57:33;96187.84;;;27.83;57.36
8717;BME280;4395;48.554;8.820;2022-08-02T09:59:51;96193.97;;;27.77;55.79
8717;BME280;4395;48.554;8.820;2022-08-02T10:01:56;96189.16;;;27.90;56.06
8717;BME280;4395;48.554;8.820;2022-08-02T10:04:05;96194.91;;;27.09;58.40
8717;BME280;4395;48.554;8.820;2022-08-02T10:06:21;96188.53;;;27.21;59.59
8717;BME280;4395;48.554;8.820;2022-08-02T10:08:24;96181.25;;;27.72;56.32
8717;BME280;4395;48.554;8.820;2022-08-02T10:10:27;96185.56;;;28.21;54.64
8717;BME280;4395;48.554;8.820;2022-08-02T10:12:30;96185.97;;;28.54;53.36
8717;BME280;4395;48.554;8.820;2022-08-02T10:14:36;96190.78;;;28.57;52.34
8717;BME280;4395;48.554;8.820;2022-08-02T10:16:41;96176.34;;;28.64;51.50
8717;BME280;4395;48.554;8.820;2022-08-02T10:18:44;96175.00;;;28.93;50.66
8717;BME280;4395;48.554;8.820;2022-08-02T10:20:49;96170.50;;;29.04;50.20
8717;BME280;4395;48.554;8.820;2022-08-02T10:22:52;96171.00;;;29.09;49.52
8717;BME280;4395;48.554;8.820;2022-08-02T10:24:56;96162.59;;;29.25;49.77
8717;BME280;4395;48.554;8.820;2022-08-02T10:26:59;96169.56;;;29.38;48.36
8717;BME280;4395;48.554;8.820;2022-08-02T10:29:03;96172.13;;;29.47;48.14
8717;BME280;4395;48.554;8.820;2022-08-02T10:31:09;96165.88;;;29.50;47.59
8717;BME280;4395;48.554;8.820;2022-08-02T10:33:15;96157.88;;;29.26;47.14
8717;BME280;4395;48.554;8.820;2022-08-02T10:35:21;96156.44;;;29.12;47.36
8717;BME280;4395;48.554;8.820;2022-08-02T10:37:27;96155.69;;;28.77;47.69
8717;BME280;4395;48.554;8.820;2022-08-02T10:39:37;96161.06;;;28.35;50.16
8717;BME280;4395;48.554;8.820;2022-08-02T10:41:45;96160.63;;;27.54;51.24
8717;BME280;4395;48.554;8.820;2022-08-02T10:43:48;96150.38;;;28.17;48.74
8717;BME280;4395;48.554;8.820;2022-08-02T10:45:51;96131.03;;;28.33;48.83
8717;BME280;4395;48.554;8.820;2022-08-02T10:48:01;96155.06;;;29.03;47.55
8717;BME280;4395;48.554;8.820;2022-08-02T10:50:05;96149.47;;;29.41;45.92
8717;BME280;4395;48.554;8.820;2022-08-02T10:52:08;96144.16;;;29.75;44.76
8717;BME280;4395;48.554;8.820;2022-08-02T10:54:16;96140.75;;;30.08;43.96
8717;BME280;4395;48.554;8.820;2022-08-02T10:56:45;96038.63;;;29.57;42.54
8717;BME280;4395;48.554;8.820;2022-08-02T10:59:22;96147.19;;;30.42;42.53
8717;BME280;4395;48.554;8.820;2022-08-02T11:01:28;96146.34;;;30.64;42.05
8717;BME280;4395;48.554;8.820;2022-08-02T11:03:43;96165.69;;;30.34;41.30
8717;BME280;4395;48.554;8.820;2022-08-02T11:05:59;96149.09;;;30.38;40.75
8717;BME280;4395;48.554;8.820;2022-08-02T11:08:17;96149.72;;;30.81;39.05
8717;BME280;4395;48.554;8.820;2022-08-02T11:10:35;96019.03;;;29.96;38.98
8717;BME280;4395;48.554;8.820;2022-08-02T11:12:57;96146.91;;;31.11;39.50
8717;BME280;4395;48.554;8.820;2022-08-02T11:15:03;96024.63;;;29.24;41.39
8717;BME280;4395;48.554;8.820;2022-08-02T11:17:13;96138.91;;;29.47;43.43
8717;BME280;4395;48.554;8.820;2022-08-02T11:19:16;96134.84;;;29.87;43.10
8717;BME280;4395;48.554;8.820;2022-08-02T11:21:20;96095.88;;;30.25;40.78
8717;BME280;4395;48.554;8.820;2022-08-02T11:23:35;96127.91;;;31.13;39.29